Time;durP1;ratioP1;P1;durP2;ratioP2;P2;SDS_P1;SDS_P2;PMS_P1;PMS_P2;Temp;Humidity;BMP_temperature;BMP_pressure;BME280_temperature;BME280_humidity;BME280_pressure;Samples;Min_cycle;Max_cycle;Signal;HPM_P1;HPM_P2
2023/01/02 00:01:45;;;;;;;16.52;9.10;;;;;;;16.43;60.12;98165.84;5112286;28;20057;-26
2023/01/02 00:04:11;;;;;;;15.35;8.80;;;;;;;16.42;60.24;98175.25;5114570;27;20464;-26
2023/01/02 00:06:37;;;;;;;14.13;8.15;;;;;;;16.37;60.57;98173.00;5125772;27;20023;-26
2023/01/02 00:09:04;;;;;;;11.40;7.80;;;;;;;16.44;60.24;98177.59;5116353;27;20023;-26
2023/01/02 00:11:29;;;;;;;14.27;8.68;;;;;;;16.37;60.61;98174.97;5122671;27;20069;-26
2023/01/02 00:13:55;;;;;;;12.32;7.65;;;;;;;16.48;60.29;98183.75;5114389;28;20024;-25
2023/01/02 00:16:21;;;;;;;13.60;7.82;;;;;;;16.48;60.25;98181.00;5114050;27;20028;-26
2023/01/02 00:18:46;;;;;;;13.63;7.85;;;;;;;16.48;60.21;98176.31;5114376;28;20058;-26
2023/01/02 00:21:12;;;;;;;11.07;6.70;;;;;;;16.49;60.10;98180.59;5113805;28;20043;-26
2023/01/02 00:23:37;;;;;;;13.02;7.38;;;;;;;16.42;60.36;98174.50;5115150;28;20027;-26
2023/01/02 00:26:03;;;;;;;11.68;7.60;;;;;;;16.41;60.40;98173.72;5121050;27;20019;-28
2023/01/02 00:28:29;;;;;;;10.93;6.80;;;;;;;16.43;60.37;98181.53;5114367;28;20531;-26
2023/01/02 00:30:55;;;;;;;12.40;7.22;;;;;;;16.45;60.29;98179.09;5113721;28;20020;-26
2023/01/02 00:33:21;;;;;;;10.48;6.78;;;;;;;16.40;60.32;98168.66;5113728;27;20019;-26
2023/01/02 00:35:47;;;;;;;10.23;7.00;;;;;;;16.30;60.76;98173.16;5113907;28;20123;-26
2023/01/02 00:38:13;;;;;;;12.25;6.85;;;;;;;16.38;60.60;98174.56;5127652;27;20515;-25
2023/01/02 00:40:39;;;;;;;10.48;6.60;;;;;;;16.40;60.42;98168.66;5125302;27;20376;-26
2023/01/02 00:43:04;;;;;;;11.18;6.40;;;;;;;16.38;60.72;98171.03;5111447;28;20137;-26
2023/01/02 00:45:30;;;;;;;11.23;6.22;;;;;;;16.34;60.85;98167.59;5114144;28;20061;-26
2023/01/02 00:47:56;;;;;;;11.25;6.65;;;;;;;16.42;60.47;98163.53;5113558;28;20096;-26
2023/01/02 00:50:21;;;;;;;11.80;6.53;;;;;;;16.42;60.52;98169.00;5113841;28;20425;-26
2023/01/02 00:52:47;;;;;;;10.35;6.07;;;;;;;16.39;60.65;98165.16;5113776;28;20016;-25
2023/01/02 00:55:12;;;;;;;12.52;6.53;;;;;;;16.46;60.44;98166.97;5113880;28;20033;-26
2023/01/02 00:57:37;;;;;;;10.05;6.22;;;;;;;16.34;60.85;98162.13;5113557;28;20106;-26
2023/01/02 01:00:04;;;;;;;11.82;6.15;;;;;;;16.43;60.50;98167.81;5113423;28;20020;-26
2023/01/02 01:02:30;;;;;;;10.27;6.90;;;;;;;16.43;60.67;98165.84;5113466;28;20028;-26
2023/01/02 01:04:55;;;;;;;10.63;6.40;;;;;;;16.49;60.39;98157.91;5113660;28;20055;-26
2023/01/02 01:07:21;;;;;;;10.95;6.20;;;;;;;16.48;60.47;98156.34;5113595;28;20085;-26
2023/01/02 01:09:46;;;;;;;12.60;6.35;;;;;;;16.47;60.36;98155.59;5113346;28;20036;-26
2023/01/02 01:12:12;;;;;;;9.23;6.60;;;;;;;16.35;60.93;98153.50;5113475;28;20020;-26
2023/01/02 01:14:37;;;;;;;9.25;6.32;;;;;;;16.38;60.89;98160.09;5102703;28;20035;-26
2023/01/02 01:17:03;;;;;;;8.75;5.90;;;;;;;16.46;60.39;98153.25;5115793;28;20012;-27
2023/01/02 01:19:30;;;;;;;8.25;6.20;;;;;;;16.46;60.52;98145.81;5117493;28;20118;-26
2023/01/02 01:21:55;;;;;;;9.48;6.05;;;;;;;16.49;60.31;98152.44;5117219;28;20024;-26
2023/01/02 01:24:21;;;;;;;9.52;6.43;;;;;;;16.45;60.47;98146.25;5117421;28;20072;-26
2023/01/02 01:26:46;;;;;;;10.68;6.72;;;;;;;16.44;60.55;98150.94;5117160;28;20080;-26
2023/01/02 01:29:12;;;;;;;10.43;6.55;;;;;;;16.44;60.55;98150.94;5117381;28;20110;-26
2023/01/02 01:31:37;;;;;;;10.07;5.97;;;;;;;16.46;60.59;98151.28;5117348;28;20019;-27
2023/01/02 01:34:03;;;;;;;10.55;6.32;;;;;;;16.44;60.39;98147.47;5117397;27;20026;-26
2023/01/02 01:36:28;;;;;;;8.63;5.78;;;;;;;16.43;60.72;98143.19;5119829;27;20016;-27
2023/01/02 01:38:54;;;;;;;9.40;5.35;;;;;;;16.45;60.40;98146.25;5136648;27;20022;-26
2023/01/02 01:41:22;;;;;;;10.90;6.70;;;;;;;16.40;60.87;98144.03;5120359;27;20019;-26
2023/01/02 01:43:59;;;;;;;9.77;6.88;;;;;;;16.38;60.98;98140.94;5098989;28;20106;-26
2023/01/02 01:46:42;;;;;;;11.32;6.13;;;;;;;16.38;60.84;98146.41;5116806;27;20023;-26
2023/01/02 01:49:13;;;;;;;9.57;6.45;;;;;;;16.41;60.88;98140.84;5117267;27;20019;-26
2023/01/02 01:52:03;;;;;;;8.45;6.00;;;;;;;16.43;60.65;98140.44;5124656;27;20027;-26
2023/01/02 01:54:52;;;;;;;11.32;6.20;;;;;;;16.42;60.83;98138.91;5119728;27;20589;-26
2023/01/02 01:57:49;;;;;;;16.02;6.75;;;;;;;16.43;60.82;98127.53;5116740;28;20098;-26
2023/01/02 02:00:15;;;;;;;10.20;5.80;;;;;;;16.43;60.83;98126.75;5116984;27;20022;-26
2023/01/02 02:02:45;;;;;;;9.85;6.00;;;;;;;16.49;60.59;98125.03;5115322;27;20019;-26
2023/01/02 02:05:13;;;;;;;10.80;5.93;;;;;;;16.43;60.63;98127.53;5117013;28;20160;-27
2023/01/02 02:07:45;;;;;;;10.50;5.70;;;;;;;16.38;60.87;98127.25;5130356;27;20101;-26
2023/01/02 02:10:11;;;;;;;11.18;6.18;;;;;;;16.39;60.78;98128.78;5116013;28;20428;-26
2023/01/02 02:12:36;;;;;;;9.43;5.97;;;;;;;16.42;60.83;98119.72;5116468;28;20059;-26
2023/01/02 02:15:02;;;;;;;8.48;5.65;;;;;;;16.40;61.03;98124.84;5116241;28;20047;-26
2023/01/02 02:17:46;;;;;;;8.38;6.05;;;;;;;16.41;60.84;98115.44;5116288;28;20040;-26
2023/01/02 02:20:44;;;;;;;8.02;5.68;;;;;;;16.38;60.87;98119.03;5116303;28;20016;-25
2023/01/02 02:23:43;;;;;;;9.00;6.05;;;;;;;16.41;60.88;98107.22;5109514;28;20036;-26
2023/01/02 02:26:09;;;;;;;8.32;6.00;;;;;;;16.35;61.07;98114.38;5116349;28;20126;-26
2023/01/02 02:28:57;;;;;;;11.27;6.32;;;;;;;16.41;60.98;98107.22;5115978;27;20043;-26
2023/01/02 02:31:40;;;;;;;8.77;5.18;;;;;;;16.38;61.03;98099.84;5109840;27;20364;-26
2023/01/02 02:34:15;;;;;;;10.73;6.05;;;;;;;16.40;61.05;98100.22;5116405;28;20157;-26
2023/01/02 02:37:00;;;;;;;10.13;5.70;;;;;;;16.35;60.99;98097.97;5121411;27;20058;-26
2023/01/02 02:39:31;;;;;;;10.98;6.35;;;;;;;16.32;61.08;98093.34;5122704;27;20057;-26
2023/01/02 02:42:57;;;;;;;9.45;5.90;;;;;;;16.39;61.09;98095.91;5127607;27;20027;-26
2023/01/02 02:45:37;;;;;;;14.60;5.95;;;;;;;16.39;61.02;98104.13;5115640;28;20019;-26
2023/01/02 02:48:33;;;;;;;10.18;6.18;;;;;;;16.34;61.16;98099.16;5116037;27;20444;-26
2023/01/02 02:51:12;;;;;;;12.50;6.45;;;;;;;16.40;60.90;98094.72;5100867;27;20060;-26
2023/01/02 02:53:46;;;;;;;10.05;6.40;;;;;;;16.43;60.71;98094.66;5136523;27;20029;-26
2023/01/02 02:56:15;;;;;;;11.02;6.20;;;;;;;16.42;60.62;98097.81;5115564;28;20027;-25
2023/01/02 02:58:42;;;;;;;8.95;6.05;;;;;;;16.44;60.48;98101.66;5119791;27;20019;-26
2023/01/02 03:01:14;;;;;;;9.38;6.75;;;;;;;16.44;60.86;98089.97;5115559;28;20093;-26
2023/01/02 03:03:40;;;;;;;11.13;6.75;;;;;;;16.43;60.74;98091.16;5116820;27;20058;-26
2023/01/02 03:06:13;;;;;;;10.77;6.32;;;;;;;16.42;60.73;98095.09;5135834;27;20047;-26
2023/01/02 03:08:50;;;;;;;10.93;7.03;;;;;;;16.42;60.64;98101.34;5134780;27;20023;-26
2023/01/02 03:11:15;;;;;;;9.63;6.32;;;;;;;16.38;60.85;98105.34;5115184;28;20114;-26
2023/01/02 03:14:05;;;;;;;9.70;6.00;;;;;;;16.41;60.83;98090.78;5115556;27;20070;-26
2023/01/02 03:16:38;;;;;;;9.70;5.90;;;;;;;16.37;60.85;98095.56;5115069;28;20031;-26
2023/01/02 03:19:16;;;;;;;;;;;;;;;16.42;60.66;98089.59;5115714;28;20531;-26
2023/01/02 03:21:56;;;;;;;8.32;5.70;;;;;;;16.44;60.67;98087.22;5115457;28;20280;-26
2023/01/02 03:24:24;;;;;;;8.63;5.85;;;;;;;16.44;60.69;98090.69;5115152;28;20032;-26
2023/01/02 03:26:57;;;;;;;8.43;5.85;;;;;;;16.42;60.76;98087.63;5115033;27;20035;-26
2023/01/02 03:29:43;;;;;;;;;;;;;;;16.35;60.98;98087.00;5115384;28;20019;-26
2023/01/02 03:32:14;;;;;;;10.45;6.68;;;;;;;16.38;60.81;98091.63;5122707;27;19908;-26
2023/01/02 03:34:44;;;;;;;9.85;5.57;;;;;;;16.34;60.81;98093.66;5135314;27;20043;-26
2023/01/02 03:37:21;;;;;;;9.32;6.35;;;;;;;16.36;60.74;98091.28;5135635;27;20023;-26
2023/01/02 03:39:54;;;;;;;8.95;6.15;;;;;;;16.47;60.48;98087.13;5116111;27;20020;-26
2023/01/02 03:42:38;;;;;;;8.73;6.93;;;;;;;16.48;60.26;98082.41;5114934;28;20417;-26
2023/01/02 03:45:11;;;;;;;11.02;5.95;;;;;;;16.43;60.19;98082.94;5116055;27;20023;-26
2023/01/02 03:47:39;;;;;;;;;;;;;;;16.44;60.52;98081.75;5115059;28;20072;-27
2023/01/02 03:50:11;;;;;;;9.40;5.30;;;;;;;16.41;60.61;98079.84;5114615;28;19949;-26
2023/01/02 03:52:37;;;;;;;12.38;6.13;;;;;;;16.45;60.32;98077.78;5101385;27;20536;-28
2023/01/02 03:55:03;;;;;;;9.80;6.05;;;;;;;16.46;60.32;98082.06;5134958;27;20056;-26
2023/01/02 03:57:52;;;;;;;9.20;5.78;;;;;;;16.45;60.21;98086.00;5116810;27;20111;-26
2023/01/02 04:00:20;;;;;;;9.88;5.72;;;;;;;16.38;60.57;98077.94;5096821;27;20425;-26
2023/01/02 04:02:59;;;;;;;7.85;5.32;;;;;;;16.42;60.27;98081.38;5126773;27;20024;-26
2023/01/02 04:05:33;;;;;;;8.43;5.60;;;;;;;16.41;60.27;98085.31;5115735;27;20436;-26
2023/01/02 04:08:04;;;;;;;9.02;5.45;;;;;;;16.48;60.05;98085.16;5125346;27;20040;-26
2023/01/02 04:10:34;;;;;;;9.52;5.55;;;;;;;16.44;60.18;98085.22;5114276;28;20106;-26
2023/01/02 04:13:04;;;;;;;8.55;6.20;;;;;;;16.45;60.18;98083.25;5114146;28;20451;-26
2023/01/02 04:15:33;;;;;;;9.80;5.97;;;;;;;16.42;60.27;98078.66;5114430;28;20080;-26
2023/01/02 04:18:22;;;;;;;8.55;5.85;;;;;;;16.45;60.11;98086.00;5113982;28;20019;-26
2023/01/02 04:20:52;;;;;;;8.27;6.07;;;;;;;16.39;60.14;98076.75;5122364;27;20019;-26
2023/01/02 04:23:36;;;;;;;9.02;5.65;;;;;;;16.46;60.16;98071.09;5118778;27;20589;-26
2023/01/02 04:26:11;;;;;;;9.98;6.22;;;;;;;16.49;59.93;98070.25;5114041;28;20027;-26
2023/01/02 04:28:37;;;;;;;9.13;5.28;;;;;;;16.44;60.02;98079.00;5113669;28;20019;-26
2023/01/02 04:31:08;;;;;;;8.02;6.35;;;;;;;16.41;60.25;98082.59;5117923;27;20493;-26
2023/01/02 04:33:54;;;;;;;7.80;5.80;;;;;;;16.43;60.12;98085.69;5127721;27;20023;-26
2023/01/02 04:36:19;;;;;;;9.48;5.95;;;;;;;16.36;60.18;98094.03;5116295;27;20031;-26
2023/01/02 04:38:45;;;;;;;8.35;5.63;;;;;;;16.41;59.99;98096.28;5125240;27;20024;-26
2023/01/02 04:41:32;;;;;;;10.45;5.47;;;;;;;16.43;59.95;98096.63;5116384;28;20020;-26
2023/01/02 04:43:58;;;;;;;8.98;5.60;;;;;;;16.44;59.66;98098.16;5121549;27;20031;-26
2023/01/02 04:46:26;;;;;;;9.45;6.07;;;;;;;16.42;59.95;98098.59;5113710;28;20023;-26
2023/01/02 04:48:53;;;;;;;9.30;6.07;;;;;;;16.49;59.75;98105.88;5113889;28;20112;-26
2023/01/02 04:51:19;;;;;;;9.85;5.25;;;;;;;16.44;59.90;98104.41;5114432;28;20020;-26
2023/01/02 04:53:49;;;;;;;9.13;5.53;;;;;;;16.37;59.83;98096.34;5118267;28;20100;-26
2023/01/02 04:56:14;;;;;;;7.70;5.47;;;;;;;16.45;59.87;98094.22;5124088;27;20532;-26
2023/01/02 04:58:42;;;;;;;10.30;7.10;;;;;;;16.49;59.75;98103.13;5125539;27;20035;-26
2023/01/02 05:01:13;;;;;;;13.05;8.18;;;;;;;16.43;59.95;98100.13;5105915;27;20015;-25
2023/01/02 05:03:39;;;;;;;10.48;6.53;;;;;;;16.46;59.73;98101.22;5138114;27;20027;-26
2023/01/02 05:06:06;;;;;;;12.40;7.05;;;;;;;16.43;59.82;98099.38;5118154;28;20019;-28
2023/01/02 05:08:31;;;;;;;11.05;6.93;;;;;;;16.42;59.74;98100.56;5117850;28;20080;-26
2023/01/02 05:10:57;;;;;;;10.70;7.03;;;;;;;16.43;59.85;98104.84;5117581;28;20031;-26
2023/01/02 05:13:22;;;;;;;10.95;6.53;;;;;;;16.41;59.72;98113.47;5113229;27;20027;-26
2023/01/02 05:15:57;;;;;;;9.80;6.07;;;;;;;16.40;59.88;98111.94;5131464;27;20483;-26
2023/01/02 05:18:22;;;;;;;9.50;7.30;;;;;;;16.41;59.88;98118.19;5117321;28;20028;-26
2023/01/02 05:20:48;;;;;;;9.30;6.07;;;;;;;16.36;60.04;98122.19;5099405;28;20068;-26
2023/01/02 05:25:57;;;;;;;8.70;6.10;;;;;;;16.42;59.63;98125.19;5117507;27;20026;-26
2023/01/02 05:28:23;;;;;;;7.43;5.57;;;;;;;16.48;59.28;98118.78;5117507;28;20019;-27
2023/01/02 05:30:48;;;;;;;7.88;5.30;;;;;;;16.40;59.59;98114.66;5117671;28;20046;-26
2023/01/02 05:33:14;;;;;;;11.73;6.60;;;;;;;16.39;59.78;98126.81;5130703;27;20068;-26
2023/01/02 05:35:40;;;;;;;9.20;5.97;;;;;;;16.38;59.88;98119.03;5117542;28;20027;-26
2023/01/02 05:38:05;;;;;;;9.38;5.95;;;;;;;16.39;59.86;98132.28;5128689;27;20034;-26
2023/01/02 05:40:31;;;;;;;8.63;5.68;;;;;;;16.40;59.55;98133.06;5116203;28;20020;-26
2023/01/02 05:42:58;;;;;;;10.63;5.57;;;;;;;16.48;59.39;98137.19;5117109;27;20036;-26
2023/01/02 05:45:23;;;;;;;9.65;5.85;;;;;;;16.43;59.59;98138.47;5117152;28;20023;-26
2023/01/02 05:47:49;;;;;;;9.30;5.35;;;;;;;16.43;59.71;98134.97;5117052;28;20024;-26
2023/01/02 05:50:14;;;;;;;7.88;5.60;;;;;;;16.40;59.71;98141.28;5117218;27;20015;-26
2023/01/02 05:52:40;;;;;;;11.63;6.20;;;;;;;16.41;59.52;98129.91;5112242;28;20020;-26
2023/01/02 05:55:06;;;;;;;9.38;5.78;;;;;;;16.39;59.63;98142.47;5127378;27;20071;-26
2023/01/02 05:57:31;;;;;;;6.75;4.82;;;;;;;16.32;59.82;98139.91;5133725;27;20019;-26
2023/01/02 05:59:56;;;;;;;10.55;5.85;;;;;;;16.31;59.92;98141.09;5116620;28;20019;-26
2023/01/02 06:02:22;;;;;;;7.82;5.43;;;;;;;16.35;59.92;98136.28;5116185;28;20054;-26
2023/01/02 06:04:47;;;;;;;9.43;5.47;;;;;;;16.43;59.73;98137.69;5116581;28;20015;-26
2023/01/02 06:07:13;;;;;;;7.40;5.50;;;;;;;16.38;59.73;98138.97;5116573;28;20026;-26
2023/01/02 06:09:38;;;;;;;8.93;5.40;;;;;;;16.41;59.64;98140.09;5123899;27;20035;-26
2023/01/02 06:12:04;;;;;;;8.38;5.53;;;;;;;16.41;59.45;98140.84;5118198;27;20019;-26
2023/01/02 06:14:29;;;;;;;8.30;5.25;;;;;;;16.41;59.61;98140.09;5127551;27;20028;-26
2023/01/02 06:16:55;;;;;;;8.68;5.07;;;;;;;16.44;59.51;98144.72;5116319;27;20392;-27
2023/01/02 06:19:20;;;;;;;7.90;4.80;;;;;;;16.43;59.47;98149.44;5116826;28;20367;-26
2023/01/02 06:21:45;;;;;;;7.25;5.03;;;;;;;16.43;59.67;98146.69;5116072;28;20024;-26
2023/01/02 06:24:11;;;;;;;7.07;4.93;;;;;;;16.45;59.40;98151.72;5116314;28;20032;-26
2023/01/02 06:26:36;;;;;;;8.73;4.72;;;;;;;16.49;59.46;98155.94;5116121;28;20031;-26
2023/01/02 06:29:03;;;;;;;9.52;4.80;;;;;;;16.47;59.32;98155.59;5118678;27;20015;-26
2023/01/02 06:31:29;;;;;;;7.47;4.95;;;;;;;16.42;59.55;98152.59;5116094;28;20015;-27
2023/01/02 06:33:57;;;;;;;10.13;5.15;;;;;;;16.46;59.46;98158.75;5115901;28;20104;-26
2023/01/02 06:36:25;;;;;;;6.28;4.63;;;;;;;16.47;59.33;98154.81;5115911;28;20031;-26
2023/01/02 06:38:50;;;;;;;9.98;5.30;;;;;;;16.45;59.41;98165.41;5116095;28;20023;-26
2023/01/02 06:41:16;;;;;;;7.90;5.00;;;;;;;16.44;59.36;98163.91;5115663;28;20453;-26
2023/01/02 06:43:44;;;;;;;5.97;4.35;;;;;;;16.37;59.59;98155.81;5115904;28;20106;-26
2023/01/02 06:46:11;;;;;;;10.57;5.10;;;;;;;16.50;59.23;98162.19;5116002;28;20040;-26
2023/01/02 06:48:37;;;;;;;6.90;5.20;;;;;;;16.44;59.43;98155.69;5115791;28;20024;-25
2023/01/02 06:51:08;;;;;;;9.23;5.68;;;;;;;16.50;59.42;98162.97;5115491;28;20468;-26
2023/01/02 06:53:35;;;;;;;9.35;5.57;;;;;;;16.43;59.40;98167.81;5125447;27;20051;-26
2023/01/02 06:56:01;;;;;;;9.80;5.82;;;;;;;16.48;59.30;98170.03;5119258;27;20027;-27
2023/01/02 06:58:31;;;;;;;7.60;5.40;;;;;;;16.43;59.52;98165.09;5115805;27;20479;-26
2023/01/02 07:01:10;;;;;;;8.85;5.70;;;;;;;16.34;59.74;98175.81;5115416;28;20019;-26
2023/01/02 07:03:36;;;;;;;10.70;5.65;;;;;;;16.40;59.46;98174.13;5115755;28;20088;-26
2023/01/02 07:06:07;;;;;;;9.63;5.38;;;;;;;16.40;59.30;98176.88;5134713;27;20023;-27
2023/01/02 07:08:33;;;;;;;8.02;5.28;;;;;;;16.40;59.41;98176.88;5136083;27;20027;-26
2023/01/02 07:11:13;;;;;;;7.65;5.30;;;;;;;16.38;59.49;98179.25;5135758;27;20040;-26
2023/01/02 07:13:40;;;;;;;11.15;5.78;;;;;;;16.33;59.62;98185.22;5132563;27;20024;-26
2023/01/02 07:16:08;;;;;;;8.40;5.28;;;;;;;16.45;59.39;98173.63;5115259;28;20153;-26
2023/01/02 07:18:34;;;;;;;8.73;5.05;;;;;;;16.48;59.20;98173.56;5115336;28;20023;-26
2023/01/02 07:21:00;;;;;;;10.85;5.72;;;;;;;16.49;59.15;98183.31;5115131;28;20019;-27
2023/01/02 07:23:25;;;;;;;8.95;5.47;;;;;;;16.43;59.21;98185.03;5127275;27;20553;-26
2023/01/02 07:25:56;;;;;;;10.52;6.07;;;;;;;16.39;59.54;98184.31;5115369;27;20023;-26
2023/01/02 07:45:09;;;;;;;9.32;5.60;;;;;;;16.44;59.42;98192.03;5124378;27;20098;-26
2023/01/02 07:47:35;;;;;;;9.10;5.38;;;;;;;16.45;59.29;98198.28;5134696;27;20019;-25
2023/01/02 07:50:00;;;;;;;9.73;5.50;;;;;;;16.45;59.28;98201.00;5116826;27;20065;-26
2023/01/02 07:52:26;;;;;;;10.65;5.25;;;;;;;16.39;59.49;98208.19;5132192;27;20039;-26
2023/01/02 07:54:51;;;;;;;8.32;5.80;;;;;;;16.43;59.26;98206.16;5124238;27;20015;-27
2023/01/02 07:57:17;;;;;;;7.82;5.20;;;;;;;16.42;59.37;98212.84;5118523;27;20154;-27
2023/01/02 07:59:45;;;;;;;10.48;5.28;;;;;;;16.44;59.23;98210.44;5114160;28;20049;-26
2023/01/02 08:02:11;;;;;;;11.23;5.97;;;;;;;16.40;59.39;98221.47;5114402;28;20034;-28
2023/01/02 08:04:38;;;;;;;8.63;5.43;;;;;;;16.32;59.61;98213.81;5114284;28;20043;-26
2023/01/02 08:07:03;;;;;;;11.35;6.30;;;;;;;16.37;59.48;98218.78;5114406;28;20034;-26
2023/01/02 08:09:29;;;;;;;10.00;5.68;;;;;;;16.37;59.39;98214.09;5114274;28;20072;-26
2023/01/02 08:11:54;;;;;;;8.95;5.85;;;;;;;16.45;59.31;98207.25;5114490;28;20535;-26
2023/01/02 08:14:19;;;;;;;8.18;5.80;;;;;;;16.45;59.30;98209.22;5122262;27;20042;-26
2023/01/02 08:16:45;;;;;;;13.40;6.40;;;;;;;16.43;59.55;98208.91;5101174;28;20096;-26
2023/01/02 08:19:10;;;;;;;9.73;5.97;;;;;;;16.32;59.54;98213.81;5114115;28;20024;-26
2023/01/02 08:21:36;;;;;;;11.27;6.05;;;;;;;16.38;59.44;98218.38;5113812;28;20045;-27
2023/01/02 08:24:01;;;;;;;11.00;6.88;;;;;;;16.43;59.23;98214.38;5114097;27;20023;-26
2023/01/02 08:26:27;;;;;;;10.38;5.95;;;;;;;16.41;59.43;98212.06;5095187;28;20024;-26
2023/01/02 08:28:52;;;;;;;9.80;5.95;;;;;;;16.39;59.32;98219.13;5113489;28;20012;-26
2023/01/02 08:31:20;;;;;;;9.32;5.47;;;;;;;16.41;59.36;98214.03;5114827;28;20023;-25
2023/01/02 08:33:46;;;;;;;10.23;6.00;;;;;;;16.43;59.24;98223.38;5126354;27;20107;-28
2023/01/02 08:36:13;;;;;;;10.85;5.30;;;;;;;16.36;59.50;98233.66;5114704;28;20433;-26
2023/01/02 08:38:39;;;;;;;7.75;5.50;;;;;;;16.43;59.42;98220.63;5134524;27;20015;-26
2023/01/02 08:41:04;;;;;;;11.38;5.93;;;;;;;16.41;59.50;98223.00;5119218;27;20491;-26
2023/01/02 08:43:33;;;;;;;7.93;5.60;;;;;;;16.48;59.22;98228.34;5113888;28;20528;-26
2023/01/02 08:46:02;;;;;;;8.00;6.10;;;;;;;16.37;59.49;98230.50;5113771;28;20464;-26
2023/01/02 08:48:27;;;;;;;9.43;5.43;;;;;;;16.40;59.56;98232.41;5113903;28;20395;-26
2023/01/02 08:50:53;;;;;;;9.38;5.88;;;;;;;16.36;59.47;98233.66;5113878;28;20016;-26
2023/01/02 08:53:18;;;;;;;10.43;6.13;;;;;;;16.27;59.94;98234.22;5114175;28;20043;-26
2023/01/02 08:55:44;;;;;;;9.80;5.82;;;;;;;16.34;59.64;98231.34;5113722;28;20028;-26
2023/01/02 08:58:09;;;;;;;8.68;5.90;;;;;;;16.29;59.86;98233.81;5114013;28;20058;-26
2023/01/02 09:00:35;;;;;;;10.48;6.45;;;;;;;16.31;59.66;98239.66;5113545;28;20055;-26
2023/01/02 09:03:00;;;;;;;10.55;6.78;;;;;;;16.36;59.59;98236.41;5113874;28;20041;-25
2023/01/02 09:05:29;;;;;;;10.70;6.53;;;;;;;16.42;59.33;98235.50;5127100;28;20023;-26
2023/01/02 09:07:55;;;;;;;9.43;6.78;;;;;;;16.45;59.43;98231.13;5113609;28;20023;-26
2023/01/02 09:10:21;;;;;;;8.10;6.18;;;;;;;16.35;59.63;98230.16;5115665;28;20116;-26
2023/01/02 09:12:46;;;;;;;9.00;6.70;;;;;;;16.39;59.44;98239.09;5124977;28;20463;-26
2023/01/02 09:15:12;;;;;;;9.40;6.68;;;;;;;16.44;59.31;98240.56;5127027;28;20075;-26
2023/01/02 09:17:37;;;;;;;11.50;6.78;;;;;;;16.41;59.25;98233.97;5113496;28;20111;-26
2023/01/02 09:20:03;;;;;;;9.15;6.28;;;;;;;16.44;59.30;98243.31;5113443;28;20479;-26
2023/01/02 09:22:28;;;;;;;8.05;6.30;;;;;;;16.39;59.40;98246.53;5113566;28;20023;-26
2023/01/02 09:24:54;;;;;;;8.68;6.82;;;;;;;16.27;59.80;98244.41;5113481;28;20024;-26
2023/01/02 09:27:19;;;;;;;10.18;6.25;;;;;;;16.37;59.47;98249.69;5122493;28;20031;-28
2023/01/02 09:29:45;;;;;;;10.75;6.05;;;;;;;16.48;59.34;98250.25;5119910;28;20076;-25
2023/01/02 09:32:10;;;;;;;7.85;5.82;;;;;;;16.42;59.19;98253.91;5133894;28;20019;-26
2023/01/02 09:34:36;;;;;;;10.25;5.90;;;;;;;16.44;59.15;98257.00;5132020;28;20467;-26
2023/01/02 09:37:01;;;;;;;8.45;5.68;;;;;;;16.35;59.50;98252.06;5121151;27;20041;-27
2023/01/02 09:39:27;;;;;;;7.80;6.57;;;;;;;16.32;59.75;98246.66;5131677;27;20408;-26
2023/01/02 09:41:58;;;;;;;7.63;5.80;;;;;;;16.39;59.38;98244.56;5116996;28;20023;-26
2023/01/02 09:44:40;;;;;;;8.88;5.82;;;;;;;16.33;59.70;98250.94;5116960;28;20470;-26
2023/01/02 09:47:06;;;;;;;9.00;6.00;;;;;;;16.38;59.56;98242.25;5116858;28;20028;-26
2023/01/02 09:49:42;;;;;;;6.93;5.97;;;;;;;16.42;59.37;98248.44;5136786;27;20106;-26
2023/01/02 09:52:14;;;;;;;10.88;5.55;;;;;;;16.45;59.20;98245.59;5114165;27;20019;-26
2023/01/02 09:54:40;;;;;;;10.97;6.10;;;;;;;16.40;59.53;98243.38;5128244;27;20055;-26
2023/01/02 09:57:24;;;;;;;8.00;6.00;;;;;;;16.38;59.58;98245.75;5119631;27;20444;-26
2023/01/02 10:00:01;;;;;;;8.57;6.22;;;;;;;16.45;59.48;98247.56;5120926;27;20069;-27
2023/01/02 10:03:22;;;;;;;8.40;6.25;;;;;;;16.49;59.25;98237.31;5114053;28;20047;-26
2023/01/02 10:06:08;;;;;;;8.65;5.85;;;;;;;16.39;59.49;98238.31;5023148;28;20367;-26
2023/01/02 10:08:47;;;;;;;8.35;6.35;;;;;;;16.41;59.45;98244.91;5029280;28;20037;-26
2023/01/02 10:11:18;;;;;;;8.93;5.65;;;;;;;16.43;59.37;98244.50;5028638;28;20049;-26
2023/01/02 10:13:51;;;;;;;8.77;6.40;;;;;;;16.44;59.51;98241.31;5024202;28;20038;-26
2023/01/02 10:16:22;;;;;;;10.45;6.72;;;;;;;16.42;59.50;98227.28;5030873;28;20045;-26
2023/01/02 10:18:53;;;;;;;9.15;6.40;;;;;;;16.43;59.50;98230.81;5031353;28;20470;-26
2023/01/02 10:21:31;;;;;;;10.30;6.70;;;;;;;16.39;59.57;98230.88;5031176;28;20033;-26
2023/01/02 10:24:05;;;;;;;10.43;6.90;;;;;;;16.40;59.63;98226.94;5031083;28;20046;-26
2023/01/02 10:26:36;;;;;;;10.93;6.32;;;;;;;16.39;59.70;98219.13;5031258;28;20040;-26
2023/01/02 10:29:08;;;;;;;11.07;6.93;;;;;;;16.39;59.76;98224.63;5030154;28;20049;-26
2023/01/02 10:31:41;;;;;;;8.52;6.70;;;;;;;16.39;59.70;98219.13;5029233;28;20025;-26
2023/01/02 10:34:14;;;;;;;8.95;6.78;;;;;;;16.42;59.66;98218.31;5022807;28;20037;-26
2023/01/02 10:36:40;;;;;;;9.48;6.85;;;;;;;16.46;59.45;98202.56;5030857;28;20048;-26
2023/01/02 10:39:11;;;;;;;10.20;6.47;;;;;;;16.46;59.56;98208.03;5031059;28;20033;-26
2023/01/02 10:41:37;;;;;;;10.57;6.40;;;;;;;16.41;59.66;98205.81;5093160;28;20035;-26
2023/01/02 10:44:25;;;;;;;10.90;6.80;;;;;;;16.43;59.48;98197.94;5113608;28;20038;-25
2023/01/02 10:46:51;;;;;;;9.50;7.22;;;;;;;16.41;59.72;98201.09;5113402;28;20035;-26
2023/01/02 10:49:18;;;;;;;9.75;6.13;;;;;;;16.44;59.67;98194.00;5112643;28;20471;-26
2023/01/02 10:51:49;;;;;;;10.50;6.63;;;;;;;16.41;59.56;98192.88;5095409;28;20023;-26
2023/01/02 10:54:15;;;;;;;8.52;6.35;;;;;;;16.40;59.55;98190.56;5113703;28;20432;-26
2023/01/02 10:56:47;;;;;;;8.82;6.28;;;;;;;16.42;59.75;98190.94;5126946;27;20043;-26
2023/01/02 10:59:26;;;;;;;9.40;6.38;;;;;;;16.45;59.59;98187.31;5113755;28;20035;-26
2023/01/02 11:01:57;;;;;;;9.10;6.20;;;;;;;16.43;59.47;98187.75;5113321;28;20027;-26
2023/01/02 11:04:28;;;;;;;9.63;6.55;;;;;;;16.40;59.83;98176.88;5113351;28;20055;-26
2023/01/02 11:06:57;;;;;;;10.70;6.53;;;;;;;16.38;59.68;98185.50;5113415;28;20118;-26
2023/01/02 11:09:24;;;;;;;11.20;6.25;;;;;;;16.41;59.69;98176.47;5113069;27;20583;-26
2023/01/02 11:11:56;;;;;;;10.02;6.60;;;;;;;16.46;59.62;98173.22;5113208;27;20067;-26
2023/01/02 11:14:26;;;;;;;10.50;6.55;;;;;;;16.38;59.83;98168.31;5126783;27;20455;-26
2023/01/02 11:16:56;;;;;;;13.73;7.50;;;;;;;16.42;59.78;98166.28;5113158;28;20021;-26
2023/01/02 11:19:22;;;;;;;9.70;6.95;;;;;;;16.45;59.52;98151.72;5113422;28;20031;-26
2023/01/02 11:21:51;;;;;;;9.55;6.72;;;;;;;16.39;59.81;98151.47;5112481;28;20034;-26
2023/01/02 11:24:24;;;;;;;10.95;7.25;;;;;;;16.42;59.73;98158.84;5113052;27;20027;-27
2023/01/02 11:26:50;;;;;;;10.55;6.85;;;;;;;16.44;59.55;98153.69;5112704;27;20020;-25
2023/01/02 11:29:33;;;;;;;12.50;7.38;;;;;;;16.26;60.23;98152.53;5112828;28;20369;-26
2023/01/02 11:32:01;;;;;;;11.43;7.50;;;;;;;16.39;59.74;98147.94;5112733;28;20419;-26
2023/01/02 11:34:37;;;;;;;12.07;7.20;;;;;;;16.39;59.77;98137.78;5110872;28;20383;-26
2023/01/02 11:37:13;;;;;;;12.57;8.20;;;;;;;16.43;59.58;98143.19;5112412;28;20852;-26
2023/01/02 11:39:40;;;;;;;9.63;7.30;;;;;;;16.42;59.73;98136.16;5112538;28;20062;-26
2023/01/02 11:45:09;;;;;;;12.52;7.28;;;;;;;16.38;59.74;98129.97;5112220;28;20171;-26
2023/01/02 11:47:46;;;;;;;11.80;8.17;;;;;;;16.31;60.10;98124.66;5112992;27;20024;-27
2023/01/02 11:50:24;;;;;;;13.00;8.20;;;;;;;16.32;60.11;98120.72;5112631;28;20459;-26
2023/01/02 11:52:56;;;;;;;12.35;7.35;;;;;;;16.42;59.66;98119.72;5113252;28;20031;-27
2023/01/02 11:55:43;;;;;;;12.80;9.23;;;;;;;16.40;59.93;98111.94;5132969;27;20027;-26
2023/01/02 11:58:27;;;;;;;12.98;8.20;;;;;;;16.41;59.92;98107.22;5113626;27;20024;-26
2023/01/02 12:01:23;;;;;;;11.30;8.15;;;;;;;16.31;60.29;98114.47;5125129;27;20464;-26
2023/01/02 12:03:50;;;;;;;10.48;7.63;;;;;;;16.36;59.92;98119.44;5095940;27;20058;-26
2023/01/02 12:06:22;;;;;;;12.93;8.50;;;;;;;16.33;60.02;98112.06;5120755;27;20062;-26
2023/01/02 12:09:10;;;;;;;11.73;8.83;;;;;;;16.46;59.74;98109.44;5115125;27;20015;-26